createdAt,value
2018-11-29T00:04:22.464Z,18.47
2018-11-29T00:09:26.053Z,21.07
2018-11-29T00:14:29.508Z,19.27
2018-11-29T00:19:32.958Z,20.50
2018-11-29T00:24:36.642Z,22.37
2018-11-29T00:29:40.126Z,20.25
2018-11-29T00:34:43.393Z,19.67
2018-11-29T00:39:46.707Z,19.50
2018-11-29T00:44:50.207Z,20.37
2018-11-29T00:49:53.603Z,19.33
2018-11-29T00:54:57.127Z,19.10
2018-11-29T01:00:00.738Z,19.27
2018-11-29T01:05:04.436Z,21.43
2018-11-29T01:10:12.686Z,22.80
2018-11-29T01:15:16.735Z,19.37
2018-11-29T01:20:20.801Z,20.03
2018-11-29T01:25:24.225Z,24.70
2018-11-29T01:30:27.791Z,20.50
2018-11-29T01:35:31.358Z,19.93
2018-11-29T01:40:34.707Z,22.43
2018-11-29T01:45:38.329Z,24.47
2018-11-29T01:50:41.647Z,19.27
2018-11-29T01:55:45.163Z,17.80
2018-11-29T02:00:48.478Z,19.93
2018-11-29T02:05:51.800Z,18.47
2018-11-29T02:10:55.347Z,16.43
2018-11-29T02:15:58.654Z,22.73
2018-11-29T02:21:02.206Z,17.87
2018-11-29T02:26:05.740Z,20.93
2018-11-29T02:31:09.339Z,20.47
2018-11-29T02:36:12.848Z,23.57
2018-11-29T02:41:16.456Z,19.80
2018-11-29T02:46:19.786Z,21.27
2018-11-29T02:51:23.452Z,19.80
2018-11-29T02:56:26.859Z,15.83
2018-11-29T03:01:30.322Z,15.87
2018-11-29T03:06:33.604Z,18.23
2018-11-29T03:11:37.203Z,16.80
2018-11-29T03:16:40.799Z,16.27
2018-11-29T03:21:44.401Z,18.20
2018-11-29T03:26:47.843Z,18.67
2018-11-29T03:31:51.258Z,19.17
2018-11-29T03:36:54.823Z,21.80
2018-11-29T03:41:58.287Z,19.63
2018-11-29T03:47:01.811Z,19.53
2018-11-29T03:52:05.174Z,21.90
2018-11-29T03:57:08.722Z,18.83
2018-11-29T04:02:12.182Z,21.20
2018-11-29T04:07:15.735Z,18.17
2018-11-29T04:12:19.063Z,16.83
2018-11-29T04:17:22.621Z,21.10
2018-11-29T04:22:25.984Z,18.40
2018-11-29T04:27:29.364Z,18.97
2018-11-29T04:32:32.930Z,16.67
2018-11-29T04:37:36.331Z,14.63
2018-11-29T04:42:40.161Z,15.97
2018-11-29T04:47:43.855Z,15.47
2018-11-29T04:52:48.841Z,13.13
2018-11-29T04:57:53.569Z,14.23
2018-11-29T05:02:57.249Z,15.67
2018-11-29T05:08:00.884Z,14.67
2018-11-29T05:13:04.601Z,33.37
2018-11-29T05:18:08.314Z,15.73
2018-11-29T05:23:11.934Z,15.60
2018-11-29T05:28:16.759Z,16.70
2018-11-29T05:33:20.488Z,13.93
2018-11-29T05:38:24.292Z,14.30
2018-11-29T05:43:28.065Z,16.93
2018-11-29T05:48:31.834Z,15.53
2018-11-29T05:53:35.535Z,15.60
2018-11-29T05:58:40.191Z,13.90
2018-11-29T06:03:47.296Z,19.57
2018-11-29T06:08:50.795Z,14.07
2018-11-29T06:13:54.408Z,14.27
2018-11-29T06:18:57.935Z,24.87
2018-11-29T06:24:01.517Z,16.67
2018-11-29T06:29:05.147Z,15.43
2018-11-29T06:34:08.660Z,14.63
2018-11-29T06:39:12.403Z,15.30
2018-11-29T06:44:15.952Z,18.87
2018-11-29T06:49:19.521Z,15.87
2018-11-29T06:54:23.135Z,18.53
2018-11-29T06:59:26.739Z,14.10
2018-11-29T07:04:30.352Z,16.50
2018-11-29T07:09:33.892Z,22.53
2018-11-29T07:14:37.477Z,16.90
2018-11-29T07:19:41.013Z,13.40
2018-11-29T07:24:44.246Z,13.90
2018-11-29T07:29:47.875Z,16.60
2018-11-29T07:34:51.250Z,17.60
2018-11-29T07:39:54.637Z,17.77
2018-11-29T07:44:58.246Z,17.77
2018-11-29T07:50:01.717Z,14.77
2018-11-29T07:55:08.851Z,14.25
2018-11-29T08:00:14.309Z,13.33
2018-11-29T08:05:18.163Z,15.13
2018-11-29T08:10:21.042Z,14.47
2018-11-29T08:15:24.249Z,13.67
2018-11-29T08:20:27.741Z,11.93
2018-11-29T08:25:31.161Z,13.00
2018-11-29T08:30:34.722Z,15.73
2018-11-29T08:35:37.911Z,14.50
2018-11-29T08:40:41.163Z,13.83
2018-11-29T08:45:44.363Z,13.53
2018-11-29T08:50:47.551Z,14.77
2018-11-29T08:55:50.745Z,15.20
2018-11-29T09:00:54.114Z,13.77
2018-11-29T09:05:57.410Z,13.97
2018-11-29T09:11:00.890Z,18.17
2018-11-29T09:16:05.285Z,10.97
2018-11-29T09:21:08.780Z,10.73
2018-11-29T09:26:12.580Z,12.57
2018-11-29T09:31:15.910Z,14.50
2018-11-29T09:36:19.321Z,12.20
2018-11-29T09:41:22.662Z,15.83
2018-11-29T09:46:25.998Z,15.27
2018-11-29T09:51:29.568Z,12.73
2018-11-29T09:56:33.204Z,11.73
2018-11-29T10:01:36.778Z,12.67
2018-11-29T10:06:40.247Z,16.63
2018-11-29T10:11:44.088Z,11.73
2018-11-29T10:16:47.361Z,12.63
2018-11-29T10:21:50.812Z,13.38
2018-11-29T10:26:54.223Z,14.00
2018-11-29T10:31:59.255Z,15.17
2018-11-29T10:37:01.066Z,12.57
2018-11-29T10:42:04.638Z,17.10
2018-11-29T10:47:08.215Z,14.33
2018-11-29T10:52:11.634Z,14.07
2018-11-29T10:57:15.014Z,16.73
2018-11-29T11:02:23.687Z,13.00
2018-11-29T11:07:27.150Z,11.47
2018-11-29T11:12:30.698Z,10.17
2018-11-29T11:17:34.227Z,11.17
2018-11-29T11:22:37.683Z,11.67
2018-11-29T11:27:41.235Z,12.70
2018-11-29T11:32:45.282Z,14.13
2018-11-29T11:37:48.826Z,15.30
2018-11-29T11:42:52.634Z,15.10
2018-11-29T11:48:02.962Z,14.50
2018-11-29T11:52:59.959Z,14.13
2018-11-29T11:58:03.660Z,11.67
2018-11-29T12:03:09.583Z,13.80
2018-11-29T12:08:13.911Z,12.57
2018-11-29T12:13:17.470Z,13.10
2018-11-29T12:18:21.059Z,14.27
2018-11-29T12:23:24.815Z,13.53
2018-11-29T12:28:28.612Z,16.93
2018-11-29T12:33:32.146Z,14.53
2018-11-29T12:38:35.602Z,14.03
2018-11-29T12:43:39.451Z,15.43
2018-11-29T12:48:43.071Z,12.70
2018-11-29T12:53:46.614Z,13.23
2018-11-29T12:58:50.842Z,13.87
2018-11-29T13:03:56.525Z,12.87
2018-11-29T13:09:03.004Z,12.97
2018-11-29T13:14:07.071Z,14.97
2018-11-29T13:19:10.548Z,17.33
2018-11-29T13:24:14.046Z,14.37
2018-11-29T13:29:17.402Z,13.47
2018-11-29T13:34:20.840Z,13.70
2018-11-29T13:39:24.383Z,14.57
2018-11-29T13:44:30.076Z,14.50
2018-11-29T13:49:33.975Z,16.97
2018-11-29T13:54:37.791Z,12.53
2018-11-29T13:59:42.063Z,19.63
2018-11-29T14:04:46.036Z,16.37
2018-11-29T14:09:50.131Z,15.70
2018-11-29T14:14:55.024Z,15.37
2018-11-29T14:19:58.639Z,14.63
2018-11-29T14:25:02.017Z,16.33
2018-11-29T14:30:13.978Z,15.95
2018-11-29T14:35:17.404Z,19.23
2018-11-29T14:40:24.693Z,19.17
2018-11-29T14:45:27.992Z,15.67
2018-11-29T14:50:32.700Z,15.70
2018-11-29T14:55:38.172Z,14.60
2018-11-29T15:00:41.814Z,15.17
2018-11-29T15:05:46.090Z,12.73
2018-11-29T15:10:50.245Z,16.53
2018-11-29T15:15:54.055Z,16.47
2018-11-29T15:20:57.805Z,14.97
2018-11-29T15:26:01.107Z,15.00
2018-11-29T15:31:04.613Z,17.73
2018-11-29T15:36:07.846Z,17.87
2018-11-29T15:41:11.262Z,22.50
2018-11-29T15:46:14.439Z,17.97
2018-11-29T15:51:17.807Z,16.77
2018-11-29T15:56:21.057Z,23.03
2018-11-29T16:01:24.380Z,18.40
2018-11-29T16:06:27.560Z,17.53
2018-11-29T16:11:30.738Z,25.87
2018-11-29T16:16:34.110Z,22.60
2018-11-29T16:21:37.410Z,19.30
2018-11-29T16:26:40.578Z,20.97
2018-11-29T16:31:43.766Z,22.43
2018-11-29T16:36:46.951Z,20.97
2018-11-29T16:41:50.223Z,19.60
2018-11-29T16:46:53.842Z,21.97
2018-11-29T16:51:57.206Z,18.93
2018-11-29T16:57:00.407Z,22.50
2018-11-29T17:02:04.197Z,25.80
2018-11-29T17:07:07.009Z,22.20
2018-11-29T17:12:10.182Z,27.23
2018-11-29T17:17:13.623Z,20.30
2018-11-29T17:22:16.972Z,26.27
2018-11-29T17:27:20.302Z,21.03
2018-11-29T17:32:23.698Z,25.67
2018-11-29T17:37:27.104Z,20.43
2018-11-29T17:42:30.299Z,30.23
2018-11-29T17:47:33.804Z,24.60
2018-11-29T17:52:37.311Z,23.17
2018-11-29T17:57:40.963Z,25.10
2018-11-29T18:02:44.926Z,22.73
2018-11-29T18:07:48.159Z,24.33
2018-11-29T18:12:53.991Z,24.33
2018-11-29T18:17:57.206Z,21.90
2018-11-29T18:23:00.387Z,25.60
2018-11-29T18:28:03.875Z,22.63
2018-11-29T18:33:07.326Z,23.90
2018-11-29T18:38:10.523Z,19.03
2018-11-29T18:43:14.105Z,18.90
2018-11-29T18:48:17.464Z,19.30
2018-11-29T18:53:21.066Z,19.98
2018-11-29T18:58:25.121Z,17.73
2018-11-29T19:03:28.622Z,18.40
2018-11-29T19:08:32.139Z,21.33
2018-11-29T19:13:35.546Z,28.83
2018-11-29T19:18:39.068Z,20.97
2018-11-29T19:23:42.520Z,20.63
2018-11-29T19:28:45.943Z,16.83
2018-11-29T19:33:49.154Z,19.47
2018-11-29T19:38:52.643Z,23.60
2018-11-29T19:43:56.448Z,21.83
2018-11-29T19:48:59.806Z,17.47
2018-11-29T19:54:03.259Z,14.20
2018-11-29T19:59:06.575Z,12.37
2018-11-29T20:04:10.174Z,17.40
2018-11-29T20:09:13.366Z,14.87
2018-11-29T20:14:16.542Z,13.03
2018-11-29T20:24:47.839Z,12.43
2018-11-29T20:29:51.835Z,12.17
2018-11-29T20:34:55.061Z,14.10
2018-11-29T20:39:59.162Z,14.10
2018-11-29T20:45:03.211Z,15.33
2018-11-29T20:50:06.691Z,20.93
2018-11-29T20:55:16.192Z,14.03
2018-11-29T21:00:19.558Z,12.82
2018-11-29T21:05:23.734Z,19.63
2018-11-29T21:10:27.575Z,14.80
2018-11-29T21:15:30.760Z,12.67
2018-11-29T21:20:33.968Z,15.33
2018-11-29T21:25:37.292Z,13.40
2018-11-29T21:30:40.698Z,15.73
2018-11-29T21:35:44.843Z,17.30
2018-11-29T21:40:59.532Z,15.80
2018-11-29T21:46:03.090Z,18.00
2018-11-29T21:51:06.560Z,18.50
2018-11-29T21:56:10.057Z,14.43
2018-11-29T22:01:13.422Z,15.07
2018-11-29T22:06:16.734Z,17.70
2018-11-29T22:11:19.960Z,17.67
2018-11-29T22:16:23.726Z,15.97
2018-11-29T22:21:27.906Z,15.67
2018-11-29T22:26:31.102Z,15.97
2018-11-29T22:31:34.415Z,16.30
2018-11-29T22:36:38.519Z,17.80
2018-11-29T22:41:41.733Z,18.40
2018-11-29T22:46:44.923Z,16.23
2018-11-29T22:51:48.117Z,14.07
2018-11-29T22:56:51.335Z,14.63
2018-11-29T23:01:54.557Z,17.03
2018-11-29T23:06:57.773Z,14.87
2018-11-29T23:12:01.066Z,17.83
2018-11-29T23:17:04.300Z,17.70
2018-11-29T23:22:07.546Z,16.40
2018-11-29T23:27:10.867Z,13.20
2018-11-29T23:32:14.109Z,17.33
2018-11-29T23:37:17.402Z,16.73
2018-11-29T23:42:20.641Z,14.57
2018-11-29T23:47:23.939Z,18.50
2018-11-29T23:52:27.246Z,14.60
2018-11-29T23:57:30.513Z,20.13
